createdAt,value
2022-08-29T00:02:52.755Z,13.77
2022-08-29T00:05:25.469Z,14.50
2022-08-29T00:07:54.863Z,13.88
2022-08-29T00:10:44.380Z,15.13
2022-08-29T00:13:17.142Z,14.15
2022-08-29T00:15:46.640Z,13.68
2022-08-29T00:18:16.454Z,14.15
2022-08-29T00:20:46.628Z,13.52
2022-08-29T00:24:06.012Z,13.73
2022-08-29T00:26:36.660Z,13.82
2022-08-29T00:29:06.515Z,13.38
2022-08-29T00:35:14.178Z,13.23
2022-08-29T00:37:44.145Z,12.63
2022-08-29T00:40:15.441Z,13.98
2022-08-29T00:47:40.396Z,14.05
2022-08-29T00:50:13.233Z,13.98
2022-08-29T00:56:30.620Z,13.10
2022-08-29T00:59:50.225Z,13.27
2022-08-29T01:02:20.057Z,12.65
2022-08-29T01:04:49.130Z,12.40
2022-08-29T01:07:20.500Z,12.95
2022-08-29T01:09:49.908Z,12.73
2022-08-29T01:13:15.232Z,12.23
2022-08-29T01:15:46.171Z,12.32
2022-08-29T01:18:17.317Z,12.82
2022-08-29T01:21:46.961Z,13.13
2022-08-29T01:28:36.316Z,12.65
2022-08-29T01:31:08.242Z,12.80
2022-08-29T01:33:42.355Z,12.73
2022-08-29T01:36:14.263Z,14.40
2022-08-29T01:38:44.176Z,12.20
2022-08-29T01:45:30.458Z,12.93
2022-08-29T01:48:03.038Z,13.05
2022-08-29T01:50:33.590Z,13.40
2022-08-29T01:53:59.573Z,13.75
2022-08-29T01:57:33.018Z,13.25
2022-08-29T02:00:04.126Z,13.00
2022-08-29T02:06:50.531Z,13.32
2022-08-29T02:17:53.802Z,12.55
2022-08-29T02:27:52.684Z,13.20
2022-08-29T02:30:21.880Z,13.63
2022-08-29T02:36:25.309Z,12.43
2022-08-29T02:38:56.590Z,12.80
2022-08-29T02:46:01.935Z,13.07
2022-08-29T02:48:33.114Z,12.38
2022-08-29T02:51:04.530Z,12.88
2022-08-29T02:53:55.310Z,13.18
2022-08-29T02:56:30.056Z,12.43
2022-08-29T02:59:04.660Z,12.85
2022-08-29T03:01:43.704Z,13.20
2022-08-29T03:04:17.113Z,12.63
2022-08-29T03:06:48.301Z,12.65
2022-08-29T03:13:26.268Z,12.38
2022-08-29T03:15:57.240Z,12.68
2022-08-29T03:18:30.002Z,13.10
2022-08-29T03:21:01.087Z,12.95
2022-08-29T03:23:32.259Z,13.93
2022-08-29T03:26:03.174Z,13.10
2022-08-29T03:41:03.428Z,12.23
2022-08-29T03:51:29.271Z,13.05
2022-08-29T03:54:00.128Z,12.85
2022-08-29T03:56:33.755Z,12.65
2022-08-29T03:59:38.931Z,12.57
2022-08-29T04:12:22.996Z,12.13
2022-08-29T04:14:53.647Z,10.82
2022-08-29T04:17:22.569Z,11.20
2022-08-29T04:20:55.490Z,11.63
2022-08-29T04:33:42.099Z,11.73
2022-08-29T04:36:14.998Z,12.15
2022-08-29T04:43:08.047Z,12.15
2022-08-29T04:45:37.545Z,14.15
2022-08-29T04:48:07.190Z,12.65
2022-08-29T04:50:36.694Z,12.35
2022-08-29T04:57:30.668Z,15.77
2022-08-29T05:00:01.951Z,15.77
2022-08-29T05:10:52.991Z,14.43
2022-08-29T05:19:16.135Z,13.73
2022-08-29T05:23:09.924Z,13.15
2022-08-29T05:25:45.897Z,12.32
2022-08-29T05:28:15.252Z,12.20
2022-08-29T05:30:44.369Z,13.82
2022-08-29T05:34:16.299Z,13.25
2022-08-29T05:37:03.087Z,13.63
2022-08-29T05:39:53.624Z,14.30
2022-08-29T05:42:24.908Z,15.75
2022-08-29T05:44:54.225Z,15.52
2022-08-29T05:51:47.219Z,12.93
2022-08-29T05:55:13.972Z,15.48
2022-08-29T05:57:44.503Z,14.13
2022-08-29T06:00:15.198Z,14.27
2022-08-29T06:02:45.734Z,13.02
2022-08-29T06:05:17.942Z,14.38
2022-08-29T06:07:48.667Z,14.27
2022-08-29T06:10:17.941Z,13.68
2022-08-29T06:12:49.209Z,13.88
2022-08-29T06:15:18.794Z,14.68
2022-08-29T06:17:50.084Z,13.30
2022-08-29T06:20:19.669Z,14.32
2022-08-29T06:27:13.813Z,14.25
2022-08-29T06:29:44.857Z,14.20
2022-08-29T06:32:42.376Z,14.57
2022-08-29T06:35:11.450Z,13.63
2022-08-29T06:40:10.582Z,12.95
2022-08-29T06:42:39.764Z,13.05
2022-08-29T06:47:40.523Z,12.88
2022-08-29T06:50:10.479Z,12.45
2022-08-29T06:52:47.860Z,11.98
2022-08-29T06:55:17.827Z,13.13
2022-08-29T06:57:53.426Z,12.55
2022-08-29T07:00:24.050Z,11.43
2022-08-29T07:03:23.170Z,11.88
2022-08-29T07:05:54.368Z,12.07
2022-08-29T07:08:24.086Z,11.65
2022-08-29T07:10:53.036Z,11.02
2022-08-29T07:15:52.484Z,11.00
2022-08-29T07:18:22.192Z,12.05
2022-08-29T07:20:51.644Z,11.80
2022-08-29T07:23:21.323Z,11.43
2022-08-29T07:25:52.987Z,11.75
2022-08-29T07:28:22.294Z,11.52
2022-08-29T07:30:56.250Z,11.25
2022-08-29T07:33:25.758Z,11.13
2022-08-29T07:35:54.898Z,12.40
2022-08-29T07:38:24.519Z,12.43
2022-08-29T07:40:59.702Z,13.48
2022-08-29T07:43:33.172Z,13.13
2022-08-29T07:46:08.489Z,13.25
2022-08-29T07:48:38.109Z,13.43
2022-08-29T07:51:10.596Z,13.50
2022-08-29T07:53:40.544Z,13.18
2022-08-29T07:56:10.795Z,12.80
2022-08-29T07:58:40.434Z,12.48
2022-08-29T08:01:16.025Z,20.40
2022-08-29T08:03:51.016Z,12.77
2022-08-29T08:06:20.986Z,12.73
2022-08-29T08:08:50.933Z,12.55
2022-08-29T08:11:21.144Z,12.52
2022-08-29T08:13:50.537Z,12.68
2022-08-29T08:16:22.198Z,11.60
2022-08-29T08:18:52.495Z,12.63
2022-08-29T08:21:22.580Z,11.68
2022-08-29T08:23:52.353Z,12.15
2022-08-29T08:26:22.215Z,11.82
2022-08-29T08:28:51.347Z,13.32
2022-08-29T08:31:22.963Z,13.88
2022-08-29T08:33:52.579Z,12.25
2022-08-29T08:36:24.565Z,12.45
2022-08-29T08:38:54.758Z,13.63
2022-08-29T08:41:45.885Z,15.70
2022-08-29T08:44:35.211Z,15.07
2022-08-29T08:47:09.079Z,12.23
2022-08-29T08:49:44.884Z,12.45
2022-08-29T08:52:18.080Z,11.60
2022-08-29T08:54:54.182Z,11.48
2022-08-29T08:57:24.218Z,11.48
2022-08-29T08:59:58.712Z,11.50
2022-08-29T09:02:37.790Z,11.55
2022-08-29T09:05:22.404Z,11.73
2022-08-29T09:08:03.186Z,12.02
2022-08-29T09:10:44.936Z,11.27
2022-08-29T09:13:24.219Z,11.70
2022-08-29T09:15:57.087Z,11.88
2022-08-29T09:18:35.136Z,11.82
2022-08-29T09:21:30.077Z,10.73
2022-08-29T09:23:59.827Z,11.55
2022-08-29T09:26:29.262Z,12.40
2022-08-29T09:28:59.289Z,11.70
2022-08-29T09:31:29.894Z,11.80
2022-08-29T09:34:03.502Z,12.70
2022-08-29T09:36:40.182Z,12.40
2022-08-29T09:39:18.999Z,12.32
2022-08-29T09:44:23.867Z,11.65
2022-08-29T09:47:11.862Z,12.32
2022-08-29T09:50:01.627Z,11.48
2022-08-29T09:52:31.413Z,12.15
2022-08-29T09:55:24.613Z,10.40
2022-08-29T09:58:01.386Z,11.43
2022-08-29T10:00:34.655Z,11.45
2022-08-29T10:03:05.529Z,11.75
2022-08-29T10:05:42.086Z,11.27
2022-08-29T10:08:29.654Z,11.27
2022-08-29T10:11:00.785Z,12.05
2022-08-29T10:13:37.583Z,12.45
2022-08-29T10:16:16.819Z,13.98
2022-08-29T10:18:50.864Z,15.32
2022-08-29T10:21:37.409Z,16.10
2022-08-29T10:24:24.357Z,15.73
2022-08-29T10:27:01.811Z,14.88
2022-08-29T10:29:49.735Z,16.55
2022-08-29T10:32:34.552Z,16.02
2022-08-29T10:35:13.236Z,18.52
2022-08-29T10:40:27.597Z,16.38
2022-08-29T10:43:17.438Z,16.42
2022-08-29T10:45:58.525Z,15.85
2022-08-29T10:48:32.411Z,17.10
2022-08-29T10:51:14.180Z,16.35
2022-08-29T10:53:53.974Z,16.90
2022-08-29T10:56:28.950Z,14.85
2022-08-29T10:59:08.175Z,17.15
2022-08-29T11:01:41.872Z,18.00
2022-08-29T11:04:18.967Z,16.83
2022-08-29T11:06:54.867Z,15.63
2022-08-29T11:09:31.364Z,16.10
2022-08-29T11:12:17.260Z,15.82
2022-08-29T11:14:51.278Z,13.95
2022-08-29T11:17:21.161Z,14.57
2022-08-29T11:19:54.587Z,13.95
2022-08-29T11:22:25.967Z,13.65
2022-08-29T11:25:00.810Z,12.35
2022-08-29T11:27:36.312Z,12.40
2022-08-29T11:30:08.554Z,12.52
2022-08-29T11:32:42.839Z,13.48
2022-08-29T11:35:14.600Z,13.50
2022-08-29T11:38:13.823Z,13.90
2022-08-29T11:43:59.361Z,14.38
2022-08-29T11:46:35.291Z,14.18
2022-08-29T11:49:21.401Z,14.48
2022-08-29T11:51:53.496Z,14.45
2022-08-29T11:54:41.164Z,14.05
2022-08-29T11:57:29.015Z,13.77
2022-08-29T12:00:06.918Z,13.63
2022-08-29T12:02:48.849Z,13.93
2022-08-29T12:05:33.130Z,13.85
2022-08-29T12:08:26.181Z,14.25
2022-08-29T12:10:55.465Z,14.30
2022-08-29T12:13:40.565Z,14.27
2022-08-29T12:16:12.410Z,14.65
2022-08-29T12:18:45.427Z,14.38
2022-08-29T12:21:33.268Z,13.32
2022-08-29T12:24:02.862Z,14.20
2022-08-29T12:26:43.558Z,13.48
2022-08-29T12:29:20.224Z,14.07
2022-08-29T12:32:22.442Z,13.45
2022-08-29T12:35:07.505Z,14.90
2022-08-29T12:37:45.342Z,14.05
2022-08-29T12:40:22.720Z,13.77
2022-08-29T12:43:01.244Z,14.32
2022-08-29T12:45:32.828Z,13.98
2022-08-29T12:48:07.179Z,14.10
2022-08-29T12:50:37.715Z,14.02
2022-08-29T12:53:08.185Z,14.27
2022-08-29T12:55:41.064Z,14.15
2022-08-29T12:58:10.499Z,13.43
2022-08-29T13:00:40.200Z,14.20
2022-08-29T13:03:15.181Z,13.27
2022-08-29T13:05:46.154Z,13.23
2022-08-29T13:08:18.004Z,13.30
2022-08-29T13:10:57.077Z,14.00
2022-08-29T13:13:27.718Z,14.35
2022-08-29T13:16:00.559Z,14.38
2022-08-29T13:18:44.315Z,14.77
2022-08-29T13:21:25.729Z,13.32
2022-08-29T13:24:04.013Z,13.63
2022-08-29T13:26:34.952Z,13.93
2022-08-29T13:29:23.013Z,14.77
2022-08-29T13:32:10.817Z,15.13
2022-08-29T13:35:01.714Z,14.90
2022-08-29T13:37:33.399Z,15.10
2022-08-29T13:40:32.656Z,14.85
2022-08-29T13:43:02.877Z,14.45
2022-08-29T13:45:31.916Z,18.30
2022-08-29T13:48:20.663Z,14.73
2022-08-29T13:50:51.214Z,16.17
2022-08-29T13:53:20.056Z,14.30
2022-08-29T13:58:22.752Z,15.48
2022-08-29T14:00:51.923Z,14.55
2022-08-29T14:03:23.171Z,15.38
2022-08-29T14:05:56.644Z,15.70
2022-08-29T14:08:26.198Z,14.80
2022-08-29T14:10:55.196Z,14.88
2022-08-29T14:13:24.333Z,14.43
2022-08-29T14:15:53.490Z,15.70
2022-08-29T14:18:23.195Z,15.20
2022-08-29T14:20:53.825Z,15.07
2022-08-29T14:23:23.785Z,15.77
2022-08-29T14:25:53.097Z,15.65
2022-08-29T14:28:22.820Z,15.68
2022-08-29T14:30:52.464Z,16.65
2022-08-29T14:33:23.799Z,16.65
2022-08-29T14:35:55.431Z,15.63
2022-08-29T14:38:24.860Z,15.75
2022-08-29T14:40:54.470Z,16.35
2022-08-29T14:43:23.912Z,15.80
2022-08-29T14:45:54.255Z,15.57
2022-08-29T14:48:23.569Z,15.82
2022-08-29T14:50:52.710Z,16.80
2022-08-29T14:53:24.038Z,16.63
2022-08-29T14:55:55.928Z,16.45
2022-08-29T14:58:25.518Z,15.73
2022-08-29T15:00:54.845Z,16.08
2022-08-29T15:03:25.604Z,15.90
2022-08-29T15:05:54.793Z,16.60
2022-08-29T15:08:25.749Z,15.90
2022-08-29T15:10:54.813Z,15.68
2022-08-29T15:13:24.037Z,16.13
2022-08-29T15:15:53.566Z,16.17
2022-08-29T15:18:52.787Z,16.13
2022-08-29T15:21:12.746Z,16.00
2022-08-29T15:23:43.577Z,16.05
2022-08-29T15:26:12.810Z,16.52
2022-08-29T15:28:42.289Z,17.55
2022-08-29T15:31:11.911Z,16.15
2022-08-29T15:33:41.759Z,16.70
2022-08-29T15:36:11.503Z,15.82
2022-08-29T15:38:40.895Z,15.60
2022-08-29T15:41:11.920Z,16.85
2022-08-29T15:43:40.991Z,16.75
2022-08-29T15:46:10.433Z,17.27
2022-08-29T15:48:39.535Z,17.00
2022-08-29T15:51:08.691Z,16.95
2022-08-29T15:53:37.973Z,17.45
2022-08-29T15:56:07.084Z,18.05
2022-08-29T15:58:38.318Z,17.42
2022-08-29T16:01:10.173Z,17.73
2022-08-29T16:04:08.906Z,16.77
2022-08-29T16:09:15.921Z,16.63
2022-08-29T16:11:46.682Z,16.08
2022-08-29T16:17:07.805Z,15.18
2022-08-29T16:20:56.673Z,17.48
2022-08-29T16:23:27.380Z,15.75
2022-08-29T16:25:56.601Z,16.02
2022-08-29T16:28:25.751Z,15.18
2022-08-29T16:30:56.471Z,15.45
2022-08-29T16:33:25.615Z,15.13
2022-08-29T16:35:54.664Z,14.00
2022-08-29T16:38:23.673Z,13.93
2022-08-29T16:40:52.641Z,13.80
2022-08-29T16:47:57.737Z,14.15
2022-08-29T16:50:28.343Z,13.57
2022-08-29T16:54:01.994Z,13.80
2022-08-29T16:56:33.323Z,13.52
2022-08-29T16:59:04.313Z,14.85
2022-08-29T17:01:37.282Z,13.98
2022-08-29T17:04:10.795Z,15.13
2022-08-29T17:06:41.571Z,15.13
2022-08-29T17:09:17.540Z,13.60
2022-08-29T17:11:45.705Z,14.15
2022-08-29T17:14:20.143Z,14.57
2022-08-29T17:16:51.169Z,14.23
2022-08-29T17:19:23.183Z,14.73
2022-08-29T17:21:52.852Z,14.02
2022-08-29T17:24:23.539Z,14.63
2022-08-29T17:26:54.265Z,14.15
2022-08-29T17:29:26.405Z,14.65
2022-08-29T17:32:00.220Z,14.00
2022-08-29T17:34:31.421Z,14.73
2022-08-29T17:37:00.605Z,13.90
2022-08-29T17:39:31.544Z,13.10
2022-08-29T17:42:07.257Z,13.02
2022-08-29T17:44:36.978Z,13.65
2022-08-29T17:47:35.769Z,13.70
2022-08-29T18:02:11.820Z,8.32
2022-08-29T18:04:40.832Z,7.07
2022-08-29T18:09:38.864Z,6.22
2022-08-29T18:12:10.727Z,5.95
2022-08-29T18:14:42.453Z,5.20
2022-08-29T18:17:12.856Z,6.07
2022-08-29T18:19:42.763Z,5.85
2022-08-29T18:26:46.163Z,4.80
2022-08-29T18:29:16.237Z,5.25
2022-08-29T18:36:02.683Z,4.90
2022-08-29T18:38:31.668Z,5.07
2022-08-29T18:41:00.440Z,4.72
2022-08-29T18:48:03.468Z,4.85
2022-08-29T18:50:35.777Z,4.72
2022-08-29T18:53:10.867Z,5.53
2022-08-29T18:55:40.574Z,4.65
2022-08-29T18:58:09.796Z,4.90
2022-08-29T19:00:39.327Z,4.90
2022-08-29T19:04:03.247Z,5.07
2022-08-29T19:06:37.439Z,4.15
2022-08-29T19:09:37.482Z,4.10
2022-08-29T19:15:51.049Z,4.93
2022-08-29T19:18:20.842Z,5.13
2022-08-29T19:21:06.603Z,4.80
2022-08-29T19:23:58.442Z,5.65
2022-08-29T19:26:30.002Z,5.43
2022-08-29T19:28:59.812Z,6.03
2022-08-29T19:35:43.620Z,6.00
2022-08-29T19:40:43.943Z,6.57
2022-08-29T19:43:16.575Z,6.57
2022-08-29T19:45:46.426Z,6.05
2022-08-29T19:48:15.603Z,5.70
2022-08-29T19:53:26.756Z,5.82
2022-08-29T19:55:57.983Z,5.60
2022-08-29T19:58:31.262Z,5.78
2022-08-29T20:01:01.898Z,5.55
2022-08-29T20:03:40.826Z,6.03
2022-08-29T20:06:10.497Z,5.90
2022-08-29T20:08:43.843Z,6.35
2022-08-29T20:11:13.791Z,6.32
2022-08-29T20:13:50.588Z,6.07
2022-08-29T20:16:21.581Z,5.97
2022-08-29T20:18:52.087Z,5.93
2022-08-29T20:21:23.988Z,6.00
2022-08-29T20:23:57.581Z,5.30
2022-08-29T20:26:39.775Z,5.30
2022-08-29T20:29:39.901Z,5.28
2022-08-29T20:32:15.768Z,5.53
2022-08-29T20:35:37.470Z,5.47
2022-08-29T20:38:12.753Z,5.43
2022-08-29T20:40:43.471Z,5.88
2022-08-29T20:55:59.323Z,4.97
2022-08-29T20:58:30.302Z,4.63
2022-08-29T21:01:09.926Z,4.53
2022-08-29T21:04:00.371Z,4.60
2022-08-29T21:06:31.561Z,5.13
2022-08-29T21:09:02.930Z,4.78
2022-08-29T21:11:59.095Z,4.63
2022-08-29T21:14:33.326Z,4.57
2022-08-29T21:17:04.997Z,3.42
2022-08-29T21:19:36.681Z,3.88
2022-08-29T21:22:06.422Z,4.40
2022-08-29T21:24:35.630Z,4.65
2022-08-29T21:29:43.896Z,4.50
2022-08-29T21:32:46.929Z,4.47
2022-08-29T21:35:24.649Z,4.70
2022-08-29T21:37:54.450Z,4.03
2022-08-29T21:40:26.062Z,3.78
2022-08-29T21:42:59.576Z,3.90
2022-08-29T21:45:32.171Z,3.45
2022-08-29T21:48:03.422Z,3.50
2022-08-29T21:50:36.784Z,3.53
2022-08-29T21:53:09.901Z,3.60
2022-08-29T21:55:39.221Z,3.38
2022-08-29T22:03:15.737Z,3.28
2022-08-29T22:05:48.062Z,3.35
2022-08-29T22:08:17.920Z,3.83
2022-08-29T22:10:50.102Z,4.05
2022-08-29T22:17:01.547Z,3.50
2022-08-29T22:19:31.902Z,3.47
2022-08-29T22:25:18.267Z,3.95
2022-08-29T22:27:47.243Z,3.75
2022-08-29T22:30:16.515Z,3.67
2022-08-29T22:33:12.930Z,3.70
2022-08-29T22:35:47.354Z,3.70
2022-08-29T22:38:16.485Z,4.00
2022-08-29T22:40:45.679Z,4.15
2022-08-29T22:45:43.601Z,3.50
2022-08-29T22:48:13.192Z,4.05
2022-08-29T22:50:57.975Z,3.92
2022-08-29T23:01:29.260Z,4.00
2022-08-29T23:08:14.495Z,4.10
2022-08-29T23:11:11.366Z,4.55
2022-08-29T23:14:08.862Z,4.10
2022-08-29T23:16:43.175Z,4.20
2022-08-29T23:19:15.455Z,4.30
2022-08-29T23:22:36.893Z,3.90
2022-08-29T23:25:09.262Z,3.85
2022-08-29T23:27:38.323Z,4.13
2022-08-29T23:30:11.265Z,3.60
2022-08-29T23:33:29.389Z,3.72
2022-08-29T23:36:01.715Z,3.97
2022-08-29T23:38:30.882Z,3.80
2022-08-29T23:44:34.478Z,3.63
2022-08-29T23:51:15.536Z,4.30
2022-08-29T23:53:45.180Z,4.25
2022-08-29T23:56:17.157Z,4.03
2022-08-29T23:58:48.942Z,3.67
